createdAt,value
2023-03-03T00:00:59.726Z,4.51
2023-03-03T00:04:01.334Z,4.48
2023-03-03T00:07:02.894Z,4.48
2023-03-03T00:10:04.927Z,4.50
2023-03-03T00:13:18.325Z,4.54
2023-03-03T00:16:27.691Z,4.58
2023-03-03T00:19:38.599Z,4.58
2023-03-03T00:22:40.604Z,4.54
2023-03-03T00:25:46.357Z,4.49
2023-03-03T00:28:49.941Z,4.41
2023-03-03T00:31:51.462Z,4.38
2023-03-03T00:34:55.028Z,4.36
2023-03-03T00:37:58.668Z,4.34
2023-03-03T00:41:00.250Z,4.33
2023-03-03T00:44:23.195Z,4.35
2023-03-03T00:47:27.749Z,4.36
2023-03-03T00:50:34.786Z,4.36
2023-03-03T00:53:36.389Z,4.33
2023-03-03T00:56:39.076Z,4.24
2023-03-03T00:59:41.522Z,4.18
2023-03-03T01:02:46.327Z,4.15
2023-03-03T01:05:48.820Z,4.14
2023-03-03T01:08:50.584Z,4.13
2023-03-03T01:11:52.455Z,4.11
2023-03-03T01:14:55.418Z,4.09
2023-03-03T01:17:57.318Z,4.10
2023-03-03T01:20:58.983Z,4.12
2023-03-03T01:24:00.622Z,4.15
2023-03-03T01:27:02.137Z,4.16
2023-03-03T01:30:05.796Z,4.16
2023-03-03T01:33:07.432Z,4.14
2023-03-03T01:36:09.378Z,4.10
2023-03-03T01:39:11.759Z,4.07
2023-03-03T01:42:13.313Z,4.00
2023-03-03T01:45:15.003Z,3.93
2023-03-03T01:48:16.490Z,3.89
2023-03-03T01:51:24.421Z,3.89
2023-03-03T01:54:36.736Z,3.87
2023-03-03T01:57:41.978Z,3.85
2023-03-03T02:00:46.390Z,3.84
2023-03-03T02:03:48.449Z,3.86
2023-03-03T02:06:58.318Z,3.88
2023-03-03T02:10:12.579Z,3.91
2023-03-03T02:13:14.486Z,3.95
2023-03-03T02:16:16.188Z,3.98
2023-03-03T02:19:28.614Z,4.00
2023-03-03T02:22:38.896Z,4.02
2023-03-03T02:26:10.800Z,4.02
2023-03-03T02:29:13.550Z,4.05
2023-03-03T02:32:15.516Z,4.10
2023-03-03T02:35:37.244Z,4.15
2023-03-03T02:38:49.007Z,4.16
2023-03-03T02:41:57.664Z,4.17
2023-03-03T02:45:02.706Z,4.18
2023-03-03T02:48:04.486Z,4.21
2023-03-03T02:51:06.194Z,4.23
2023-03-03T02:54:09.155Z,4.21
2023-03-03T02:57:11.066Z,4.15
2023-03-03T03:00:12.971Z,4.04
2023-03-03T03:03:14.709Z,3.93
2023-03-03T03:06:16.517Z,3.82
2023-03-03T03:09:20.038Z,3.74
2023-03-03T03:12:22.194Z,3.70
2023-03-03T03:15:25.959Z,3.71
2023-03-03T03:18:28.190Z,3.74
2023-03-03T03:21:31.405Z,3.79
2023-03-03T03:24:33.547Z,3.83
2023-03-03T03:27:38.195Z,3.85
2023-03-03T03:30:40.317Z,3.82
2023-03-03T03:33:42.136Z,3.81
2023-03-03T03:36:46.960Z,3.81
2023-03-03T03:39:48.769Z,3.81
2023-03-03T03:42:53.481Z,3.84
2023-03-03T03:45:55.227Z,3.80
2023-03-03T03:48:56.961Z,3.68
2023-03-03T03:51:58.680Z,3.58
2023-03-03T03:55:02.203Z,3.51
2023-03-03T03:58:04.010Z,3.43
2023-03-03T04:01:07.750Z,3.41
2023-03-03T04:04:12.391Z,3.40
2023-03-03T04:07:15.282Z,3.41
2023-03-03T04:10:17.981Z,3.42
2023-03-03T04:13:19.746Z,3.42
2023-03-03T04:16:21.468Z,3.45
2023-03-03T04:19:23.260Z,3.51
2023-03-03T04:22:25.539Z,3.56
2023-03-03T04:25:27.418Z,3.57
2023-03-03T04:28:29.343Z,3.58
2023-03-03T04:31:31.755Z,3.57
2023-03-03T04:34:33.565Z,3.49
2023-03-03T04:37:36.269Z,3.36
2023-03-03T04:40:41.671Z,3.26
2023-03-03T04:43:43.751Z,3.19
2023-03-03T04:46:46.566Z,3.13
2023-03-03T04:49:48.170Z,3.10
2023-03-03T04:52:50.004Z,3.07
2023-03-03T04:55:53.066Z,3.11
2023-03-03T04:58:55.934Z,3.18
2023-03-03T05:01:57.657Z,3.25
2023-03-03T05:04:59.408Z,3.26
2023-03-03T05:08:01.055Z,3.26
2023-03-03T05:11:03.848Z,3.24
2023-03-03T05:14:05.435Z,3.22
2023-03-03T05:17:07.033Z,3.14
2023-03-03T05:20:10.373Z,3.09
2023-03-03T05:23:12.053Z,3.06
2023-03-03T05:26:13.582Z,3.06
2023-03-03T05:29:15.195Z,3.01
2023-03-03T05:32:16.844Z,2.97
2023-03-03T05:35:19.987Z,2.99
2023-03-03T05:38:21.818Z,3.01
2023-03-03T05:41:23.383Z,2.97
2023-03-03T05:44:24.911Z,2.94
2023-03-03T05:47:26.525Z,2.93
2023-03-03T05:50:28.117Z,2.94
2023-03-03T05:53:29.892Z,2.95
2023-03-03T05:56:31.533Z,2.97
2023-03-03T05:59:33.115Z,3.01
2023-03-03T06:02:35.480Z,3.03
2023-03-03T06:05:37.228Z,3.04
2023-03-03T06:08:38.882Z,3.07
2023-03-03T06:11:40.400Z,3.06
2023-03-03T06:14:42.033Z,3.07
2023-03-03T06:17:43.570Z,3.07
2023-03-03T06:20:45.155Z,3.10
2023-03-03T06:23:46.677Z,3.15
2023-03-03T06:26:48.379Z,3.19
2023-03-03T06:29:50.073Z,3.20
2023-03-03T06:32:51.671Z,3.21
2023-03-03T06:35:54.310Z,3.22
2023-03-03T06:38:56.087Z,3.26
2023-03-03T06:41:57.685Z,3.31
2023-03-03T06:44:59.359Z,3.35
2023-03-03T06:48:02.073Z,3.39
2023-03-03T06:51:17.487Z,3.48
2023-03-03T06:54:21.597Z,3.61
2023-03-03T06:57:25.868Z,3.76
2023-03-03T07:00:30.819Z,3.94
2023-03-03T07:03:33.480Z,4.12
2023-03-03T07:06:35.079Z,4.30
2023-03-03T07:09:36.782Z,4.45
2023-03-03T07:12:38.344Z,4.61
2023-03-03T07:15:39.968Z,4.74
2023-03-03T07:18:53.926Z,4.90
2023-03-03T07:21:55.635Z,5.09
2023-03-03T07:25:02.824Z,5.27
2023-03-03T07:28:12.372Z,5.49
2023-03-03T07:31:36.201Z,5.70
2023-03-03T07:34:44.687Z,5.94
2023-03-03T07:37:46.290Z,6.12
2023-03-03T07:40:53.132Z,6.29
2023-03-03T07:43:58.359Z,6.47
2023-03-03T07:47:23.271Z,6.64
2023-03-03T07:50:24.882Z,6.81
2023-03-03T07:53:30.016Z,6.93
2023-03-03T07:56:36.044Z,7.05
2023-03-03T08:00:03.033Z,7.20
2023-03-03T08:03:19.791Z,7.37
2023-03-03T08:06:37.045Z,7.52
2023-03-03T08:09:39.754Z,7.71
2023-03-03T08:12:42.787Z,7.85
2023-03-03T08:15:46.593Z,8.02
2023-03-03T08:18:50.592Z,8.19
2023-03-03T08:21:54.417Z,8.35
2023-03-03T08:24:56.016Z,8.51
2023-03-03T08:27:57.537Z,8.62
2023-03-03T08:31:14.400Z,8.70
2023-03-03T08:34:19.823Z,8.80
2023-03-03T08:37:21.691Z,8.92
2023-03-03T08:40:23.225Z,9.07
2023-03-03T08:43:24.994Z,9.20
2023-03-03T08:46:26.859Z,9.32
2023-03-03T08:49:28.464Z,9.42
2023-03-03T08:52:30.064Z,9.56
2023-03-03T08:55:32.024Z,9.73
2023-03-03T08:58:35.981Z,9.86
2023-03-03T09:01:38.076Z,10.03
2023-03-03T09:04:39.732Z,10.16
2023-03-03T09:07:42.153Z,10.30
2023-03-03T09:10:51.160Z,10.47
2023-03-03T09:13:59.432Z,10.67
2023-03-03T09:17:03.442Z,10.86
2023-03-03T09:20:17.690Z,11.02
2023-03-03T09:23:34.035Z,11.08
2023-03-03T09:26:48.288Z,11.13
2023-03-03T09:29:49.830Z,11.16
2023-03-03T09:32:51.572Z,11.20
2023-03-03T09:36:29.490Z,11.26
2023-03-03T09:39:31.475Z,11.30
2023-03-03T09:42:43.143Z,11.33
2023-03-03T09:46:10.885Z,11.34
2023-03-03T09:49:35.778Z,11.39
2023-03-03T09:53:06.816Z,11.43
2023-03-03T09:56:25.442Z,11.46
2023-03-03T09:59:26.928Z,11.55
2023-03-03T10:02:57.466Z,11.63
2023-03-03T10:06:13.833Z,11.72
2023-03-03T10:09:39.936Z,11.84
2023-03-03T10:12:56.626Z,12.01
2023-03-03T10:16:18.374Z,12.20
2023-03-03T10:19:36.690Z,12.38
2023-03-03T10:22:54.218Z,12.53
2023-03-03T10:26:44.773Z,12.57
2023-03-03T10:29:59.409Z,12.62
2023-03-03T10:33:16.840Z,12.68
2023-03-03T10:36:55.505Z,12.82
2023-03-03T10:40:06.348Z,12.97
2023-03-03T10:43:41.045Z,12.97
2023-03-03T10:47:20.076Z,13.02
2023-03-03T10:50:32.714Z,13.02
2023-03-03T10:53:59.793Z,13.04
2023-03-03T10:57:20.027Z,13.15
2023-03-03T11:00:31.896Z,13.29
2023-03-03T11:03:42.752Z,13.38
2023-03-03T11:06:59.809Z,13.40
2023-03-03T11:10:19.692Z,13.33
2023-03-03T11:13:35.685Z,13.27
2023-03-03T11:16:42.521Z,13.19
2023-03-03T11:20:10.405Z,13.12
2023-03-03T11:23:30.831Z,13.11
2023-03-03T11:26:50.164Z,13.10
2023-03-03T11:30:30.155Z,13.09
2023-03-03T11:33:43.301Z,13.10
2023-03-03T11:36:55.340Z,13.28
2023-03-03T11:40:06.261Z,13.41
2023-03-03T11:43:35.378Z,13.48
2023-03-03T11:46:53.860Z,13.53
2023-03-03T11:50:10.915Z,13.67
2023-03-03T11:53:27.334Z,13.84
2023-03-03T11:56:30.495Z,13.91
2023-03-03T11:59:42.561Z,13.89
2023-03-03T12:03:08.659Z,14.02
2023-03-03T12:06:13.186Z,14.15
2023-03-03T12:09:20.723Z,14.27
2023-03-03T12:12:44.368Z,14.40
2023-03-03T12:15:54.337Z,14.45
2023-03-03T12:19:34.597Z,14.40
2023-03-03T12:22:45.861Z,14.47
2023-03-03T12:25:52.068Z,14.61
2023-03-03T12:28:59.374Z,14.69
2023-03-03T12:32:39.180Z,14.73
2023-03-03T12:35:53.371Z,14.80
2023-03-03T12:39:01.015Z,14.96
2023-03-03T12:42:14.732Z,15.15
2023-03-03T12:45:45.322Z,15.22
2023-03-03T12:48:47.349Z,15.22
2023-03-03T12:52:21.164Z,15.25
2023-03-03T12:55:54.507Z,15.30
2023-03-03T12:59:14.756Z,15.38
2023-03-03T13:02:22.961Z,15.57
2023-03-03T13:05:35.986Z,15.67
2023-03-03T13:08:49.512Z,15.79
2023-03-03T13:12:23.897Z,15.93
2023-03-03T13:15:33.882Z,16.08
2023-03-03T13:18:51.654Z,16.25
2023-03-03T13:22:02.307Z,16.46
2023-03-03T13:25:09.743Z,16.66
2023-03-03T13:28:23.407Z,16.82
2023-03-03T13:31:33.500Z,17.02
2023-03-03T13:34:47.622Z,17.14
2023-03-03T13:37:53.363Z,17.19
2023-03-03T13:41:06.020Z,17.17
2023-03-03T13:44:41.292Z,17.14
2023-03-03T13:47:54.088Z,17.07
2023-03-03T13:51:10.939Z,17.05
2023-03-03T13:54:31.330Z,17.12
2023-03-03T13:57:46.902Z,17.13
2023-03-03T14:01:18.005Z,17.05
2023-03-03T14:04:53.057Z,16.96
2023-03-03T14:07:59.313Z,16.86
2023-03-03T14:11:38.679Z,16.80
2023-03-03T14:14:47.539Z,16.83
2023-03-03T14:17:53.306Z,16.92
2023-03-03T14:20:58.698Z,17.01
2023-03-03T14:24:06.798Z,17.08
2023-03-03T14:27:23.589Z,17.12
2023-03-03T14:30:27.068Z,17.15
2023-03-03T14:33:31.540Z,17.13
2023-03-03T14:36:43.877Z,17.06
2023-03-03T14:40:14.188Z,16.97
2023-03-03T14:43:23.933Z,16.85
2023-03-03T14:46:31.458Z,16.75
2023-03-03T14:49:36.576Z,16.67
2023-03-03T14:52:38.164Z,16.63
2023-03-03T14:55:42.294Z,16.59
2023-03-03T14:58:44.406Z,16.55
2023-03-03T15:01:46.658Z,16.52
2023-03-03T15:04:48.849Z,16.45
2023-03-03T15:07:56.840Z,16.34
2023-03-03T15:11:14.155Z,16.24
2023-03-03T15:14:17.273Z,16.13
2023-03-03T15:17:51.141Z,16.07
2023-03-03T15:21:13.369Z,16.03
2023-03-03T15:24:20.659Z,16.02
2023-03-03T15:27:29.994Z,15.95
2023-03-03T15:31:12.930Z,15.86
2023-03-03T15:34:26.949Z,15.80
2023-03-03T15:37:44.650Z,15.74
2023-03-03T15:40:49.352Z,15.65
2023-03-03T15:44:10.550Z,15.56
2023-03-03T15:47:22.757Z,15.45
2023-03-03T15:50:31.683Z,15.40
2023-03-03T15:53:56.450Z,15.32
2023-03-03T15:57:00.173Z,15.27
2023-03-03T16:00:01.691Z,15.23
2023-03-03T16:03:47.259Z,15.18
2023-03-03T16:07:28.901Z,15.18
2023-03-03T16:10:45.534Z,15.15
2023-03-03T16:14:17.931Z,15.11
2023-03-03T16:17:49.496Z,15.06
2023-03-03T16:21:04.013Z,14.98
2023-03-03T16:24:22.967Z,14.91
2023-03-03T16:27:28.874Z,14.86
2023-03-03T16:30:44.407Z,14.81
2023-03-03T16:34:16.086Z,14.74
2023-03-03T16:37:30.766Z,14.61
2023-03-03T16:40:37.769Z,14.48
2023-03-03T16:44:00.569Z,14.35
2023-03-03T16:47:28.054Z,14.21
2023-03-03T16:50:35.537Z,14.05
2023-03-03T16:53:51.924Z,13.87
2023-03-03T16:57:11.373Z,13.63
2023-03-03T17:00:41.688Z,13.36
2023-03-03T17:04:08.077Z,13.07
2023-03-03T17:07:48.122Z,12.80
2023-03-03T17:11:11.015Z,12.50
2023-03-03T17:14:15.987Z,12.22
2023-03-03T17:17:17.519Z,11.98
2023-03-03T17:20:31.271Z,11.78
2023-03-03T17:24:08.398Z,11.57
2023-03-03T17:27:25.975Z,11.34
2023-03-03T17:30:42.289Z,11.15
2023-03-03T17:34:03.807Z,10.98
2023-03-03T17:37:15.320Z,10.80
2023-03-03T17:40:46.185Z,10.62
2023-03-03T17:43:50.732Z,10.46
2023-03-03T17:46:55.399Z,10.33
2023-03-03T17:50:30.452Z,10.21
2023-03-03T17:53:42.167Z,10.05
2023-03-03T17:56:52.385Z,9.92
2023-03-03T18:00:03.662Z,9.79
2023-03-03T18:03:27.796Z,9.66
2023-03-03T18:06:35.113Z,9.48
2023-03-03T18:10:13.326Z,9.33
2023-03-03T18:13:34.505Z,9.19
2023-03-03T18:17:03.776Z,9.11
2023-03-03T18:20:14.227Z,9.03
2023-03-03T18:23:41.903Z,8.98
2023-03-03T18:26:43.807Z,8.95
2023-03-03T18:30:08.254Z,8.91
2023-03-03T18:33:12.136Z,8.85
2023-03-03T18:36:35.145Z,8.79
2023-03-03T18:39:44.584Z,8.77
2023-03-03T18:42:46.403Z,8.75
2023-03-03T18:45:50.535Z,8.71
2023-03-03T18:49:04.323Z,8.66
2023-03-03T18:52:31.229Z,8.60
2023-03-03T18:55:47.369Z,8.52
2023-03-03T18:58:50.884Z,8.42
2023-03-03T19:01:52.542Z,8.34
2023-03-03T19:05:14.508Z,8.29
2023-03-03T19:08:22.289Z,8.27
2023-03-03T19:11:37.817Z,8.25
2023-03-03T19:14:41.014Z,8.26
2023-03-03T19:17:48.556Z,8.24
2023-03-03T19:21:19.012Z,8.19
2023-03-03T19:24:23.570Z,8.11
2023-03-03T19:27:32.797Z,8.05
2023-03-03T19:30:56.619Z,7.95
2023-03-03T19:34:34.849Z,7.87
2023-03-03T19:37:45.294Z,7.82
2023-03-03T19:40:48.157Z,7.76
2023-03-03T19:44:23.564Z,7.71
2023-03-03T19:47:36.302Z,7.70
2023-03-03T19:51:15.149Z,7.70
2023-03-03T19:54:35.348Z,7.63
2023-03-03T19:57:54.939Z,7.57
2023-03-03T20:01:08.566Z,7.47
2023-03-03T20:04:20.080Z,7.40
2023-03-03T20:07:29.992Z,7.34
2023-03-03T20:10:43.311Z,7.32
2023-03-03T20:14:22.404Z,7.30
2023-03-03T20:17:33.112Z,7.32
2023-03-03T20:20:46.855Z,7.34
2023-03-03T20:23:59.976Z,7.37
2023-03-03T20:27:40.686Z,7.35
2023-03-03T20:30:59.406Z,7.30
2023-03-03T20:34:27.825Z,7.29
2023-03-03T20:37:50.727Z,7.31
2023-03-03T20:41:14.313Z,7.26
2023-03-03T20:44:44.932Z,7.16
2023-03-03T20:47:56.561Z,7.04
2023-03-03T20:51:14.254Z,6.97
2023-03-03T20:54:35.185Z,6.91
2023-03-03T20:57:52.648Z,6.93
2023-03-03T21:01:15.582Z,6.97
2023-03-03T21:04:26.461Z,7.03
2023-03-03T21:07:28.062Z,7.07
2023-03-03T21:10:32.038Z,7.08
2023-03-03T21:13:52.090Z,7.09
2023-03-03T21:16:56.925Z,7.06
2023-03-03T21:20:33.366Z,7.05
2023-03-03T21:23:35.086Z,7.03
2023-03-03T21:26:56.171Z,7.02
2023-03-03T21:30:13.117Z,7.04
2023-03-03T21:33:51.030Z,7.08
2023-03-03T21:36:53.458Z,7.14
2023-03-03T21:40:13.019Z,7.17
2023-03-03T21:43:52.696Z,7.17
2023-03-03T21:46:54.344Z,7.11
2023-03-03T21:49:56.112Z,7.04
2023-03-03T21:52:57.839Z,7.02
2023-03-03T21:55:59.446Z,7.02
2023-03-03T21:59:01.203Z,7.04
2023-03-03T22:02:03.716Z,7.05
2023-03-03T22:05:07.584Z,7.09
2023-03-03T22:08:09.394Z,7.11
2023-03-03T22:11:10.957Z,7.11
2023-03-03T22:14:12.557Z,7.11
2023-03-03T22:17:14.281Z,7.11
2023-03-03T22:20:16.320Z,7.11
2023-03-03T22:23:18.993Z,7.13
2023-03-03T22:26:21.969Z,7.20
2023-03-03T22:29:23.828Z,7.27
2023-03-03T22:32:25.553Z,7.31
2023-03-03T22:35:27.384Z,7.35
2023-03-03T22:38:29.141Z,7.38
2023-03-03T22:41:30.734Z,7.38
2023-03-03T22:44:32.312Z,7.38
2023-03-03T22:47:33.932Z,7.33
2023-03-03T22:50:39.513Z,7.27
2023-03-03T22:54:05.263Z,7.21
2023-03-03T22:57:07.036Z,7.13
2023-03-03T23:00:11.570Z,7.07
2023-03-03T23:03:13.232Z,7.02
2023-03-03T23:06:14.987Z,6.99
2023-03-03T23:09:16.627Z,7.00
2023-03-03T23:12:18.397Z,7.01
2023-03-03T23:15:20.441Z,7.01
2023-03-03T23:18:22.033Z,7.04
2023-03-03T23:21:23.620Z,7.06
2023-03-03T23:24:25.135Z,7.07
2023-03-03T23:27:26.759Z,7.07
2023-03-03T23:30:28.345Z,7.04
2023-03-03T23:33:29.922Z,7.03
2023-03-03T23:36:31.444Z,7.02
2023-03-03T23:39:32.990Z,7.00
2023-03-03T23:42:34.638Z,6.99
2023-03-03T23:45:36.159Z,6.97
2023-03-03T23:48:37.739Z,6.96
2023-03-03T23:51:39.359Z,6.95
2023-03-03T23:54:40.926Z,6.92
2023-03-03T23:57:42.464Z,6.91
